Main page
METAR-TAF:

METAR-TAF

Airports :

Valdosta Regional Airport

Valdosta, Georgia, United States

latitude: 30-47N, longitude: 083-17W, elevation: 203 ft

Current weather observation

The report was made 1 hour and 1 minutes ago, at 07:53 UTC
Calm wind
Temperature 63°F
Humidity 94%
Pressure 30.16 in. Hg
Visibility: 10 miles
Clear sky

METAR: KVLD 180753Z AUTO 00000KT 10SM CLR 17/16 A3016 RMK AO2 SLP220 T01720156

Time: 04:54 (08:54 UTC)

Forecast

The report was made 3 hours and 34 minutes ago, at 05:20 UTC
Forecast valid from 18 at 06 UTC to 19 at 06 UTC
Wind 7 mph from the East/Southeast
Visibility: 6 miles
Scattered clouds at a height of 25000 ft
From 18 at 1400 UTC
Wind 14 mph from the East/Southeast with gusts up to 21 mph
Visibility: 6 miles
Scattered clouds at a height of 25000 ft
From 19 at 0000 UTC
Wind 13 mph from the East
Visibility: 6 miles
Scattered clouds at a height of 25000 ft

TAF: KVLD 180520Z 1806/1906 11006KT P6SM SCT250 FM181400 12012G18KT P6SM SCT250 FM190000 10011KT P6SM SCT250

Weather observations and forecasts of more than 4000 airports (METAR and TAF reports).

The available stations are represented by yellow and red dots on the map.

Hover mouse over dot to see the name of the station.

Then click to see weather observations and forecasts.

To change the map : click on the green buttons with a black cross to zoom in, on the green button with a dash to zoom out, or on the green arrows for adjacent maps.


METAR-TAF: